createdAt,value
2019-05-12T00:01:19.626Z,99.90
2019-05-12T00:03:48.517Z,99.90
2019-05-12T00:06:17.655Z,99.90
2019-05-12T00:08:45.731Z,99.90
2019-05-12T00:11:13.604Z,99.90
2019-05-12T00:13:41.436Z,99.90
2019-05-12T00:16:09.218Z,99.90
2019-05-12T00:18:37.740Z,99.90
2019-05-12T00:21:05.784Z,99.90
2019-05-12T00:23:38.151Z,99.90
2019-05-12T00:26:07.840Z,99.90
2019-05-12T00:28:37.558Z,99.90
2019-05-12T00:31:04.737Z,99.90
2019-05-12T00:33:32.588Z,99.90
2019-05-12T00:36:00.369Z,99.90
2019-05-12T00:38:28.181Z,99.90
2019-05-12T00:40:58.247Z,99.90
2019-05-12T00:43:27.925Z,99.90
2019-05-12T00:45:55.317Z,99.90
2019-05-12T00:48:23.231Z,99.90
2019-05-12T00:50:51.008Z,99.90
2019-05-12T00:53:19.071Z,99.90
2019-05-12T00:55:47.627Z,99.90
2019-05-12T00:58:15.651Z,99.90
2019-05-12T01:00:43.437Z,99.90
2019-05-12T01:03:11.272Z,99.90
2019-05-12T01:05:39.060Z,99.90
2019-05-12T01:08:09.138Z,99.90
2019-05-12T01:10:38.582Z,99.90
2019-05-12T01:13:08.271Z,99.90
2019-05-12T01:15:37.571Z,99.90
2019-05-12T01:18:04.920Z,99.90
2019-05-12T01:20:32.720Z,99.90
2019-05-12T01:23:00.500Z,99.90
2019-05-12T01:25:29.091Z,99.90
2019-05-12T01:27:58.859Z,99.90
2019-05-12T01:30:28.465Z,99.90
2019-05-12T01:32:58.218Z,99.90
2019-05-12T01:35:27.805Z,99.90
2019-05-12T01:37:55.080Z,99.90
2019-05-12T01:40:22.868Z,99.90
2019-05-12T01:42:50.652Z,99.90
2019-05-12T01:45:18.444Z,99.90
2019-05-12T01:47:48.508Z,99.90
2019-05-12T01:50:17.826Z,99.90
2019-05-12T01:52:47.728Z,99.90
2019-05-12T01:55:15.036Z,99.90
2019-05-12T01:57:42.806Z,99.90
2019-05-12T02:00:11.501Z,99.90
2019-05-12T02:02:39.349Z,99.90
2019-05-12T02:05:08.835Z,99.90
2019-05-12T02:07:48.540Z,99.90
2019-05-12T02:10:18.066Z,99.90
2019-05-12T02:12:48.765Z,99.90
2019-05-12T02:15:18.230Z,99.90
2019-05-12T02:17:47.968Z,99.90
2019-05-12T02:20:17.917Z,99.90
2019-05-12T02:22:47.570Z,99.90
2019-05-12T02:25:14.779Z,99.90
2019-05-12T02:27:42.558Z,99.90
2019-05-12T02:30:10.625Z,99.90
2019-05-12T02:32:48.551Z,99.90
2019-05-12T02:35:07.999Z,99.90
2019-05-12T02:37:36.086Z,99.90
2019-05-12T02:40:05.090Z,99.90
2019-05-12T02:42:34.881Z,99.90
2019-05-12T02:45:05.219Z,99.90
2019-05-12T02:47:34.659Z,99.90
2019-05-12T02:50:05.061Z,99.90
2019-05-12T02:52:31.037Z,99.90
2019-05-12T02:55:00.826Z,99.90
2019-05-12T02:57:30.105Z,99.90
2019-05-12T02:59:58.675Z,99.90
2019-05-12T03:02:28.349Z,99.90
2019-05-12T03:04:57.665Z,99.90
2019-05-12T03:07:27.360Z,99.90
2019-05-12T03:09:55.327Z,99.90
2019-05-12T03:12:25.560Z,99.90
2019-05-12T03:14:54.403Z,99.90
2019-05-12T03:17:25.255Z,99.90
2019-05-12T03:19:51.882Z,99.90
2019-05-12T03:22:20.451Z,99.90
2019-05-12T03:25:06.465Z,99.90
2019-05-12T03:27:18.001Z,99.90
2019-05-12T03:29:45.863Z,99.90
2019-05-12T03:32:17.693Z,99.90
2019-05-12T03:34:47.335Z,99.90
2019-05-12T03:37:17.581Z,99.90
2019-05-12T03:39:44.759Z,99.90
2019-05-12T03:42:14.382Z,99.90
2019-05-12T03:44:44.348Z,99.90
2019-05-12T03:47:14.214Z,99.90
2019-05-12T03:49:40.592Z,99.90
2019-05-12T03:52:08.391Z,99.90
2019-05-12T03:54:36.166Z,99.90
2019-05-12T03:57:04.594Z,99.90
2019-05-12T03:59:34.765Z,99.90
2019-05-12T04:02:04.732Z,99.90
2019-05-12T04:04:34.102Z,99.90
2019-05-12T04:07:01.117Z,99.90
2019-05-12T04:09:28.890Z,99.90
2019-05-12T04:11:56.665Z,99.90
2019-05-12T04:14:25.411Z,99.90
2019-05-12T04:16:55.033Z,99.90
2019-05-12T04:19:24.882Z,99.90
2019-05-12T04:21:54.685Z,99.90
2019-05-12T04:24:24.933Z,99.90
2019-05-12T04:26:54.948Z,99.90
2019-05-12T04:29:24.810Z,99.90
2019-05-12T04:31:51.220Z,99.90
2019-05-12T04:34:19.494Z,99.90
2019-05-12T04:36:47.668Z,99.90
2019-05-12T04:39:15.450Z,99.90
2019-05-12T04:41:44.710Z,99.90
2019-05-12T04:44:15.143Z,99.90
2019-05-12T04:46:44.978Z,99.90
2019-05-12T04:49:11.735Z,99.90
2019-05-12T04:51:39.503Z,99.90
2019-05-12T04:54:07.294Z,99.90
2019-05-12T04:56:36.057Z,99.90
2019-05-12T04:59:04.958Z,99.90
2019-05-12T05:01:34.622Z,99.90
2019-05-12T05:04:05.328Z,99.90
2019-05-12T05:06:34.157Z,99.90
2019-05-12T05:09:04.842Z,99.90
2019-05-12T05:11:34.341Z,99.90
2019-05-12T05:14:03.986Z,99.90
2019-05-12T05:16:30.950Z,99.90
2019-05-12T05:18:58.733Z,99.90
2019-05-12T05:21:26.888Z,99.90
2019-05-12T05:23:54.666Z,99.90
2019-05-12T05:26:27.841Z,99.90
2019-05-12T05:28:54.105Z,99.90
2019-05-12T05:31:21.483Z,99.90
2019-05-12T05:33:50.269Z,99.90
2019-05-12T05:36:19.887Z,99.90
2019-05-12T05:38:51.033Z,99.90
2019-05-12T05:41:17.160Z,99.90
2019-05-12T05:43:48.612Z,99.90
2019-05-12T05:46:14.475Z,99.90
2019-05-12T05:48:43.999Z,99.90
2019-05-12T05:51:13.623Z,99.90
2019-05-12T05:53:41.448Z,99.90
2019-05-12T05:56:09.729Z,99.90
2019-05-12T05:58:40.239Z,99.90
2019-05-12T06:01:08.283Z,99.90
2019-05-12T06:03:36.265Z,99.90
2019-05-12T06:06:10.779Z,99.90
2019-05-12T06:08:33.840Z,99.90
2019-05-12T06:11:01.840Z,99.90
2019-05-12T06:13:31.829Z,99.90
2019-05-12T06:15:59.213Z,99.90
2019-05-12T06:18:28.963Z,99.90
2019-05-12T06:20:56.745Z,99.90
2019-05-12T06:23:28.936Z,99.90
2019-05-12T06:25:54.968Z,99.90
2019-05-12T06:28:23.510Z,99.90
2019-05-12T06:30:51.492Z,99.90
2019-05-12T06:33:22.695Z,99.90
2019-05-12T06:35:48.824Z,99.90
2019-05-12T06:38:16.613Z,99.90
2019-05-12T06:40:45.277Z,99.90
2019-05-12T06:43:14.038Z,99.90
2019-05-12T06:45:44.957Z,99.90
2019-05-12T06:48:13.354Z,99.90
2019-05-12T06:50:40.995Z,99.90
2019-05-12T06:53:08.761Z,99.90
2019-05-12T06:55:39.061Z,99.90
2019-05-12T06:58:06.040Z,99.90
2019-05-12T07:00:35.121Z,99.90
2019-05-12T07:03:04.043Z,99.90
2019-05-12T07:05:33.722Z,99.90
2019-05-12T07:08:04.027Z,99.90
2019-05-12T07:10:42.158Z,99.90
2019-05-12T07:13:02.571Z,99.90
2019-05-12T07:15:35.776Z,99.90
2019-05-12T07:18:04.330Z,99.90
2019-05-12T07:20:35.681Z,99.90
2019-05-12T07:23:04.006Z,99.90
2019-05-12T07:25:34.234Z,99.90
2019-05-12T07:28:04.882Z,99.90
2019-05-12T07:30:34.752Z,99.90
2019-05-12T07:33:03.797Z,99.90
2019-05-12T07:35:33.691Z,99.90
2019-05-12T07:38:04.293Z,99.90
2019-05-12T07:40:34.738Z,99.90
2019-05-12T07:43:03.776Z,99.90
2019-05-12T07:45:30.708Z,99.90
2019-05-12T07:47:59.363Z,99.90
2019-05-12T07:50:28.088Z,99.90
2019-05-12T07:52:55.877Z,99.90
2019-05-12T07:55:23.785Z,99.90
2019-05-12T07:57:57.887Z,99.90
2019-05-12T08:00:22.827Z,99.90
2019-05-12T08:02:50.692Z,99.90
2019-05-12T08:05:19.781Z,99.90
2019-05-12T08:07:50.392Z,99.90
2019-05-12T08:10:20.103Z,99.90
2019-05-12T08:12:51.195Z,99.90
2019-05-12T08:15:16.605Z,99.90
2019-05-12T08:17:49.300Z,99.90
2019-05-12T08:20:13.939Z,99.90
2019-05-12T08:22:43.758Z,99.90
2019-05-12T08:25:13.211Z,99.90
2019-05-12T08:27:45.159Z,99.90
2019-05-12T08:30:10.516Z,99.90
2019-05-12T08:32:38.396Z,99.90
2019-05-12T08:35:06.260Z,99.90
2019-05-12T08:37:34.112Z,99.90
2019-05-12T08:40:04.100Z,99.90
2019-05-12T08:42:31.396Z,99.90
2019-05-12T08:44:59.172Z,99.90
2019-05-12T08:47:28.993Z,99.90
2019-05-12T08:49:58.692Z,99.90
2019-05-12T08:52:30.707Z,99.90
2019-05-12T08:54:55.524Z,99.90
2019-05-12T08:57:24.166Z,99.90
2019-05-12T08:59:54.643Z,99.90
2019-05-12T09:02:23.923Z,99.90
2019-05-12T09:04:53.263Z,99.90
2019-05-12T09:07:21.036Z,99.90
2019-05-12T09:09:48.813Z,99.90
2019-05-12T09:12:16.600Z,99.90
2019-05-12T09:14:46.268Z,99.90
2019-05-12T09:17:14.115Z,99.90
2019-05-12T09:19:43.636Z,99.90
2019-05-12T09:22:17.005Z,99.90
2019-05-12T09:24:41.101Z,99.90
2019-05-12T09:27:09.114Z,99.90
2019-05-12T09:29:37.208Z,99.90
2019-05-12T09:32:09.381Z,99.90
2019-05-12T09:34:34.516Z,99.90
2019-05-12T09:37:04.026Z,99.90
2019-05-12T09:39:34.095Z,99.90
2019-05-12T09:42:03.599Z,99.90
2019-05-12T09:44:30.924Z,99.90
2019-05-12T09:46:58.946Z,99.90
2019-05-12T09:49:31.360Z,99.90
2019-05-12T09:51:56.328Z,99.90
2019-05-12T09:54:27.860Z,99.90
2019-05-12T09:56:55.392Z,99.90
2019-05-12T09:59:25.793Z,99.90
2019-05-12T10:01:54.155Z,99.90
2019-05-12T10:04:22.419Z,99.90
2019-05-12T10:06:50.222Z,99.90
2019-05-12T10:09:19.761Z,99.90
2019-05-12T10:11:53.942Z,99.90
2019-05-12T10:14:17.368Z,99.90
2019-05-12T10:16:49.574Z,99.90
2019-05-12T10:19:14.677Z,99.90
2019-05-12T10:21:44.035Z,99.90
2019-05-12T10:24:12.048Z,99.90
2019-05-12T10:26:41.187Z,99.90
2019-05-12T10:29:19.581Z,99.90
2019-05-12T10:31:39.467Z,99.90
2019-05-12T10:34:19.430Z,99.90
2019-05-12T10:36:49.162Z,99.90
2019-05-12T10:39:17.460Z,99.90
2019-05-12T10:41:45.509Z,99.90
2019-05-12T10:44:13.916Z,99.90
2019-05-12T10:46:42.530Z,99.90
2019-05-12T10:49:10.636Z,99.90
2019-05-12T10:51:38.421Z,99.90
2019-05-12T10:54:12.588Z,99.90
2019-05-12T10:56:36.061Z,99.90
2019-05-12T10:59:04.371Z,99.90
2019-05-12T11:01:32.264Z,99.90
2019-05-12T11:04:00.108Z,99.90
2019-05-12T11:06:27.894Z,99.90
2019-05-12T11:08:56.036Z,99.90
2019-05-12T11:11:24.149Z,99.90
2019-05-12T11:13:53.740Z,99.90
2019-05-12T11:16:22.883Z,99.90
2019-05-12T11:18:51.267Z,99.90
2019-05-12T11:21:19.048Z,99.90
2019-05-12T11:23:46.846Z,99.90
2019-05-12T11:26:14.871Z,99.90
2019-05-12T11:28:42.661Z,99.90
2019-05-12T11:31:10.460Z,99.90
2019-05-12T11:33:38.234Z,99.90
2019-05-12T11:36:06.029Z,99.90
2019-05-12T11:38:33.808Z,99.90
2019-05-12T11:41:01.604Z,99.90
2019-05-12T11:43:29.956Z,99.90
2019-05-12T11:45:57.848Z,99.90
2019-05-12T11:48:25.672Z,99.90
2019-05-12T11:50:54.489Z,99.90
2019-05-12T11:53:30.303Z,99.90
2019-05-12T11:55:54.109Z,99.90
2019-05-12T11:58:23.406Z,99.90
2019-05-12T12:00:53.351Z,99.90
2019-05-12T12:03:23.280Z,99.90
2019-05-12T12:05:50.888Z,99.90
2019-05-12T12:08:18.664Z,97.30
2019-05-12T12:10:49.172Z,94.60
2019-05-12T12:13:19.410Z,92.60
2019-05-12T12:15:45.521Z,93.80
2019-05-12T12:18:15.314Z,90.90
2019-05-12T12:20:44.240Z,91.50
2019-05-12T12:23:14.083Z,93.40
2019-05-12T12:25:42.953Z,91.10
2019-05-12T12:28:13.468Z,88.90
2019-05-12T12:30:41.243Z,88.60
2019-05-12T12:33:09.045Z,83.40
2019-05-12T12:35:36.852Z,82.50
2019-05-12T12:38:04.632Z,74.70
2019-05-12T12:40:32.515Z,71.40
2019-05-12T12:43:00.356Z,67.20
2019-05-12T12:45:47.424Z,63.60
2019-05-12T12:48:19.302Z,66.70
2019-05-12T12:50:44.732Z,69.30
2019-05-12T12:53:12.541Z,72.70
2019-05-12T12:55:43.737Z,71.30
2019-05-12T12:58:09.885Z,76.00
2019-05-12T13:00:46.603Z,73.60
2019-05-12T13:03:07.172Z,71.90
2019-05-12T13:05:35.681Z,70.30
2019-05-12T13:08:04.241Z,70.40
2019-05-12T13:10:33.716Z,73.20
2019-05-12T13:13:04.184Z,68.40
2019-05-12T13:15:31.253Z,66.60
2019-05-12T13:17:59.108Z,63.00
2019-05-12T13:20:26.892Z,58.30
2019-05-12T13:22:54.956Z,67.60
2019-05-12T13:25:22.741Z,56.40
2019-05-12T13:27:50.609Z,55.20
2019-05-12T13:30:21.253Z,56.10
2019-05-12T13:32:48.105Z,55.40
2019-05-12T13:35:19.859Z,55.40
2019-05-12T13:37:50.340Z,55.90
2019-05-12T13:40:15.116Z,55.10
2019-05-12T13:42:43.773Z,55.20
2019-05-12T13:45:15.932Z,55.20
2019-05-12T13:47:41.299Z,54.70
2019-05-12T13:50:13.319Z,51.60
2019-05-12T13:52:38.772Z,52.60
2019-05-12T13:55:07.806Z,54.00
2019-05-12T13:57:35.828Z,75.40
2019-05-12T14:00:10.418Z,56.80
2019-05-12T14:02:33.797Z,57.40
2019-05-12T14:05:07.226Z,59.90
2019-05-12T14:07:31.237Z,60.00
2019-05-12T14:09:59.048Z,60.50
2019-05-12T14:12:26.945Z,58.50
2019-05-12T14:14:54.721Z,58.50
2019-05-12T14:17:23.483Z,56.80
2019-05-12T14:19:53.283Z,57.30
2019-05-12T14:22:24.632Z,56.60
2019-05-12T14:24:50.476Z,57.50
2019-05-12T14:27:19.003Z,57.40
2019-05-12T14:29:47.804Z,57.00
2019-05-12T14:32:17.496Z,57.00
2019-05-12T14:34:45.112Z,58.00
2019-05-12T14:37:14.026Z,58.30
2019-05-12T14:39:46.138Z,59.00
2019-05-12T14:42:13.585Z,58.90
2019-05-12T14:44:44.998Z,57.50
2019-05-12T14:47:11.100Z,57.00
2019-05-12T14:49:38.939Z,54.60
2019-05-12T14:52:06.711Z,53.80
2019-05-12T14:54:34.503Z,53.60
2019-05-12T14:57:03.521Z,52.70
2019-05-12T14:59:39.225Z,53.20
2019-05-12T15:02:03.977Z,53.80
2019-05-12T15:04:30.490Z,54.10
2019-05-12T15:06:59.876Z,54.80
2019-05-12T15:09:27.772Z,51.60
2019-05-12T15:11:55.573Z,51.20
2019-05-12T15:14:24.608Z,52.10
2019-05-12T15:16:54.213Z,51.70
2019-05-12T15:19:25.892Z,50.70
2019-05-12T15:21:53.635Z,51.10
2019-05-12T15:24:21.205Z,52.30
2019-05-12T15:26:50.584Z,52.20
2019-05-12T15:29:20.076Z,53.10
2019-05-12T15:31:54.125Z,51.00
2019-05-12T15:34:17.613Z,50.80
2019-05-12T15:36:51.803Z,50.50
2019-05-12T15:39:14.956Z,51.50
2019-05-12T15:41:42.726Z,52.40
2019-05-12T15:44:10.753Z,52.40
2019-05-12T15:46:40.952Z,53.10
2019-05-12T15:49:08.902Z,52.50
2019-05-12T15:51:39.086Z,53.60
2019-05-12T15:54:11.513Z,54.00
2019-05-12T15:56:36.167Z,54.30
2019-05-12T15:59:04.021Z,54.00
2019-05-12T16:01:33.463Z,54.10
2019-05-12T16:04:03.501Z,53.70
2019-05-12T16:06:30.992Z,54.10
2019-05-12T16:08:58.787Z,54.40
2019-05-12T16:11:26.565Z,55.40
2019-05-12T16:13:59.260Z,55.70
2019-05-12T16:16:24.700Z,57.20
2019-05-12T16:18:53.954Z,56.10
2019-05-12T16:21:21.879Z,55.80
2019-05-12T16:23:49.708Z,55.90
2019-05-12T16:26:17.534Z,56.70
2019-05-12T16:28:45.322Z,56.30
2019-05-12T16:31:14.438Z,57.30
2019-05-12T16:33:43.625Z,57.90
2019-05-12T16:36:14.456Z,57.20
2019-05-12T16:38:41.250Z,56.60
2019-05-12T16:41:09.094Z,56.10
2019-05-12T16:43:36.869Z,56.30
2019-05-12T16:46:04.743Z,56.10
2019-05-12T16:48:35.566Z,56.10
2019-05-12T16:51:03.306Z,56.60
2019-05-12T16:53:31.308Z,60.30
2019-05-12T16:55:59.094Z,57.70
2019-05-12T16:58:33.132Z,55.70
2019-05-12T17:00:56.411Z,55.60
2019-05-12T17:03:24.196Z,56.20
2019-05-12T17:05:55.629Z,55.70
2019-05-12T17:08:23.896Z,55.70
2019-05-12T17:11:02.348Z,56.30
2019-05-12T17:13:20.620Z,56.90
2019-05-12T17:15:48.974Z,56.70
2019-05-12T17:18:17.908Z,57.10
2019-05-12T17:20:47.133Z,56.30
2019-05-12T17:23:15.336Z,56.60
2019-05-12T17:25:43.127Z,56.80
2019-05-12T17:28:13.108Z,56.80
2019-05-12T17:30:40.434Z,56.90
2019-05-12T17:33:15.812Z,56.90
2019-05-12T17:35:37.727Z,56.90
2019-05-12T17:38:05.512Z,57.00
2019-05-12T17:40:33.900Z,57.60
2019-05-12T17:43:09.143Z,57.80
2019-05-12T17:45:31.363Z,57.70
2019-05-12T17:48:02.663Z,57.90
2019-05-12T17:50:28.988Z,59.30
2019-05-12T17:53:00.243Z,59.60
2019-05-12T17:55:27.439Z,59.70
2019-05-12T17:57:56.319Z,59.20
2019-05-12T18:00:25.383Z,58.60
2019-05-12T18:02:54.851Z,58.80
2019-05-12T18:05:23.842Z,59.00
2019-05-12T18:07:53.240Z,59.80
2019-05-12T18:10:21.257Z,60.50
2019-05-12T18:12:49.043Z,61.30
2019-05-12T18:15:16.991Z,62.90
2019-05-12T18:17:49.664Z,63.90
2019-05-12T18:20:14.817Z,64.90
2019-05-12T18:22:44.921Z,65.30
2019-05-12T18:25:14.349Z,64.80
2019-05-12T18:27:48.107Z,65.10
2019-05-12T18:30:12.300Z,64.90
2019-05-12T18:32:41.236Z,65.30
2019-05-12T18:35:09.108Z,65.30
2019-05-12T18:37:36.884Z,65.40
2019-05-12T18:40:05.468Z,66.10
2019-05-12T18:42:33.712Z,66.20
2019-05-12T18:45:11.640Z,66.40
2019-05-12T18:47:32.148Z,67.10
2019-05-12T18:50:01.072Z,67.70
2019-05-12T18:52:29.445Z,68.00
2019-05-12T18:54:58.372Z,69.00
2019-05-12T18:57:26.264Z,69.80
2019-05-12T19:00:01.212Z,70.50
2019-05-12T19:02:28.175Z,71.40
2019-05-12T19:04:53.901Z,71.80
2019-05-12T19:07:35.908Z,72.50
2019-05-12T19:09:51.316Z,73.10
2019-05-12T19:12:21.581Z,73.50
2019-05-12T19:14:51.899Z,74.40
2019-05-12T19:17:18.789Z,75.20
2019-05-12T19:19:52.130Z,75.80
2019-05-12T19:22:16.080Z,76.10
2019-05-12T19:24:44.474Z,77.70
2019-05-12T19:27:18.990Z,78.80
2019-05-12T19:29:48.755Z,79.80
2019-05-12T19:32:11.371Z,82.30
2019-05-12T19:34:39.444Z,83.70
2019-05-12T19:37:07.308Z,85.10
2019-05-12T19:39:35.182Z,86.40
2019-05-12T19:42:03.772Z,88.10
2019-05-12T19:44:31.723Z,89.50
2019-05-12T19:46:59.492Z,90.80
2019-05-12T19:49:28.411Z,91.40
2019-05-12T19:51:56.792Z,92.30
2019-05-12T19:54:29.657Z,93.80
2019-05-12T19:56:54.395Z,94.60
2019-05-12T19:59:23.630Z,95.70
2019-05-12T20:01:53.582Z,97.60
2019-05-12T20:04:30.929Z,98.50
2019-05-12T20:06:50.675Z,99.90
2019-05-12T20:09:18.463Z,99.90
2019-05-12T20:11:46.251Z,99.90
2019-05-12T20:14:16.646Z,99.90
2019-05-12T20:16:43.988Z,99.90
2019-05-12T20:19:13.578Z,99.90
2019-05-12T20:21:43.824Z,99.90
2019-05-12T20:24:11.077Z,99.90
2019-05-12T20:26:40.215Z,99.90
2019-05-12T20:29:08.090Z,99.90
2019-05-12T20:31:43.475Z,99.90
2019-05-12T20:34:10.710Z,99.90
2019-05-12T20:36:35.220Z,99.90
2019-05-12T20:39:10.115Z,99.90
2019-05-12T20:41:35.062Z,99.90
2019-05-12T20:44:02.855Z,99.90
2019-05-12T20:46:30.628Z,99.90
2019-05-12T20:49:01.120Z,99.90
2019-05-12T20:51:27.916Z,99.90
2019-05-12T20:53:55.704Z,99.90
2019-05-12T20:56:24.980Z,99.90
2019-05-12T20:58:53.064Z,99.90
2019-05-12T21:01:28.332Z,99.90
2019-05-12T21:03:50.980Z,99.90
2019-05-12T21:06:18.924Z,99.90
2019-05-12T21:08:53.876Z,99.90
2019-05-12T21:11:16.480Z,99.90
2019-05-12T21:13:44.353Z,99.90
2019-05-12T21:16:17.495Z,99.90
2019-05-12T21:18:47.895Z,99.90
2019-05-12T21:21:11.552Z,99.90
2019-05-12T21:23:39.411Z,99.90
2019-05-12T21:26:07.191Z,99.90
2019-05-12T21:28:37.250Z,99.90
2019-05-12T21:31:05.029Z,99.90
2019-05-12T21:33:39.894Z,99.90
2019-05-12T21:36:03.692Z,99.90
2019-05-12T21:38:33.971Z,99.90
2019-05-12T21:41:02.060Z,99.90
2019-05-12T21:43:30.996Z,99.90
2019-05-12T21:46:01.086Z,99.90
2019-05-12T21:48:29.311Z,99.90
2019-05-12T21:50:57.287Z,99.90
2019-05-12T21:53:25.069Z,99.90
2019-05-12T21:55:57.631Z,99.90
2019-05-12T21:58:22.352Z,99.90
2019-05-12T22:00:59.611Z,99.90
2019-05-12T22:03:24.135Z,99.90
2019-05-12T22:05:55.205Z,99.90
2019-05-12T22:08:25.099Z,99.90
2019-05-12T22:10:53.979Z,99.90
2019-05-12T22:13:21.275Z,99.90
2019-05-12T22:15:51.397Z,99.90
2019-05-12T22:18:18.734Z,99.90
2019-05-12T22:20:46.700Z,99.90
2019-05-12T22:23:16.164Z,99.90
2019-05-12T22:25:49.287Z,99.90
2019-05-12T22:28:13.654Z,99.90
2019-05-12T22:30:43.604Z,99.90
2019-05-12T22:33:13.230Z,99.90
2019-05-12T22:35:40.599Z,99.90
2019-05-12T22:38:15.173Z,99.90
2019-05-12T22:40:37.866Z,99.90
2019-05-12T22:43:07.139Z,99.90
2019-05-12T22:45:43.873Z,99.90
2019-05-12T22:48:04.761Z,99.90
2019-05-12T22:50:34.882Z,99.90
2019-05-12T22:53:04.431Z,99.90
2019-05-12T22:55:33.202Z,99.90
2019-05-12T22:58:01.524Z,99.90
2019-05-12T23:00:29.461Z,99.90
2019-05-12T23:03:00.530Z,99.90
2019-05-12T23:05:26.728Z,99.90
2019-05-12T23:07:54.587Z,99.90
2019-05-12T23:10:22.493Z,99.90
2019-05-12T23:12:55.570Z,99.90
2019-05-12T23:15:19.832Z,99.90
2019-05-12T23:17:49.335Z,99.90
2019-05-12T23:20:18.016Z,99.90
2019-05-12T23:22:45.815Z,99.90
2019-05-12T23:25:19.938Z,99.90
2019-05-12T23:27:44.183Z,99.90
2019-05-12T23:30:13.406Z,99.90
2019-05-12T23:32:45.290Z,99.90
2019-05-12T23:35:11.593Z,99.90
2019-05-12T23:37:40.330Z,99.90
2019-05-12T23:40:11.607Z,99.90
2019-05-12T23:42:38.059Z,99.90
2019-05-12T23:45:06.045Z,99.90
2019-05-12T23:47:34.292Z,99.90
2019-05-12T23:50:04.035Z,99.90
2019-05-12T23:52:31.975Z,99.90
2019-05-12T23:54:59.751Z,99.90
2019-05-12T23:57:27.528Z,99.90
2019-05-12T23:59:55.389Z,99.90
